Home   Weather   USA   Truckee   Past weeks
Flag for USA

Past Weather in Truckee, California, USA — Yesterday and Last 2 Weeks

Currently: 79 °F. Sunny. (Weather station: Tahoe Airport, USA). See more current weather

Past Weather in Truckee — Graph

°F

Truckee Temperature Yesterday

Maximum temperature yesterday: 79 °F (at 3:45 pm)
Minimum temperature yesterday: 34 °F (at 6:18 am)
Average temperature yesterday: 52 °F

High & Low Weather Summary for the Past Weeks

 TemperatureHumidityPressure
High79 °F (Sep 25, 3:45 pm)100% (Sep 13, 2:56 am)30.39 "Hg (Sep 13, 2:56 am)
Low25 °F (Sep 17, 4:16 am)15% (Sep 16, 1:15 pm)29.76 "Hg (Sep 18, 3:16 am)
Average49 °F73%30.12 "Hg
* Reported Sep 11 12:45 pm — Sep 26 12:45 pm, Truckee. Weather by CustomWeather, © 2022

Note: Actual official high and low records may vary slightly from our data, if they occured in-between our weather recording intervals... More about our weather records

Truckee Weather History for the Previous 24 Hours

Scroll right to see more
 ConditionsComfort  
Time TempWeatherWind HumidityBarometerVisibility
12:45 pm
Mon, Sep 26
73 °FSunny.9 mph29%30.26 "Hg10 mi
11:45 am73 °FSunny.3 mph36%30.27 "Hg10 mi
10:45 am64 °FSunny.No wind46%30.29 "Hg10 mi
9:45 am55 °FSunny.No wind67%30.31 "Hg10 mi
8:45 am48 °FSunny.No wind87%30.31 "Hg10 mi
7:45 am39 °FFog.No wind100%30.31 "Hg10 mi
6:45 am39 °FFog.No wind100%30.30 "Hg10 mi
5:57 am41 °FFog.No wind100%30.29 "Hg1 mi
5:17 am43 °FFog.No wind100%30.29 "Hg1 mi
4:57 am43 °FFog.No wind100%30.29 "Hg1 mi
4:17 am45 °FPassing clouds.No wind100%30.29 "Hg10 mi
3:57 am43 °FFog.No wind100%30.29 "Hg1 mi
3:17 am43 °FFog.No wind100%30.29 "Hg5 mi
2:57 am45 °FPassing clouds.No wind93%30.29 "Hg10 mi
2:37 am45 °FClear.No wind93%30.29 "Hg10 mi
2:17 am46 °FClear.No wind93%30.29 "Hg10 mi
1:57 am45 °FClear.No wind100%30.29 "Hg10 mi
1:17 am48 °FClear.No wind87%30.29 "Hg10 mi
11:57 pm
Sun, Sep 25
50 °FPassing clouds.No wind82%30.29 "Hg10 mi
11:37 pm54 °FPassing clouds.No wind72%30.29 "Hg10 mi
11:17 pm52 °FPassing clouds.3 mph77%30.30 "Hg10 mi
10:37 pm52 °FClear.No wind77%30.31 "Hg10 mi
10:17 pm54 °FPassing clouds.3 mph72%30.30 "Hg10 mi
9:58 pm57 °FPartly cloudy.No wind67%30.30 "Hg10 mi
9:37 pm59 °FPassing clouds.No wind63%30.30 "Hg10 mi
9:17 pm55 °FPassing clouds.No wind72%30.31 "Hg10 mi
8:37 pm57 °FPassing clouds.3 mph63%30.29 "Hg10 mi
8:17 pm61 °FClear.3 mph55%30.29 "Hg10 mi
7:57 pm61 °FClear.5 mph55%30.28 "Hg10 mi
7:37 pm63 °FClear.7 mph52%30.28 "Hg10 mi
7:17 pm64 °FClear.5 mph49%30.28 "Hg10 mi
6:19 pm75 °FScattered clouds.6 mph31%30.27 "Hg10 mi
3:45 pm79 °FPartly sunny.8 mph23%30.28 "Hg10 mi
Weather by CustomWeather, © 2022

See weather overview